Terminal Aerodrome Forecast
Issued by NWS Grand Forks, ND

Home | Current Version | Previous Version | Text Only | Print | Product List | Glossary Off
Versions: 1 2 3 4 5 6 7 8 9 10 11 12 13

000
FTUS43 KFGF 201134
TAFFAR
TAF
KFAR 201134Z 2012/2112 15011KT P6SM FEW250
     FM201500 15018G27KT P6SM FEW250
     FM202100 16023G35KT P6SM FEW250
     FM210000 16016G26KT P6SM SCT080 BKN250
     FM210300 17015KT P6SM BKN040=

USA.gov is the U.S. government's official web portal to all federal, state and local government web resources and services.